<?xml version="1.0" encoding="UTF-8" standalone="no" ?>
<gpx xmlns="http://www.topografix.com/GPX/1/1" xmlns:xsi="http://www.w3.org/2001/XMLSchema-instance" xsi:schemaLocation="http://www.topografix.com/GPX/1/1 http://www.topografix.com/GPX/1/1/gpx.xsd" version="1.1" creator="VisuGPX - https://www.visugpx.com">
  <metadata>
    <name>trace 5</name>
  </metadata>
  <trk>
    <name><![CDATA[trace 5_2]]></name>
    <trkseg>
      <trkpt lat="48.64479" lon="-2.44503">
        <ele>105</ele>
        <time>2016-02-21T15:19:30.1Z</time>
      </trkpt>
      <trkpt lat="48.64483" lon="-2.44501">
        <ele>105</ele>
        <time>2016-02-21T15:19:33.1Z</time>
      </trkpt>
      <trkpt lat="48.64486" lon="-2.445">
        <ele>105</ele>
        <time>2016-02-21T15:19:35.1Z</time>
      </trkpt>
      <trkpt lat="48.6449" lon="-2.44499">
        <ele>105</ele>
        <time>2016-02-21T15:19:38.1Z</time>
      </trkpt>
      <trkpt lat="48.64495" lon="-2.44498">
        <ele>105</ele>
        <time>2016-02-21T15:19:41.1Z</time>
      </trkpt>
      <trkpt lat="48.64499" lon="-2.44497">
        <ele>105</ele>
        <time>2016-02-21T15:19:44.1Z</time>
      </trkpt>
      <trkpt lat="48.64503" lon="-2.44496">
        <ele>105</ele>
        <time>2016-02-21T15:19:47.1Z</time>
      </trkpt>
      <trkpt lat="48.64508" lon="-2.44496">
        <ele>105</ele>
        <time>2016-02-21T15:19:50.1Z</time>
      </trkpt>
      <trkpt lat="48.6451" lon="-2.44495">
        <ele>105</ele>
        <time>2016-02-21T15:19:52.1Z</time>
      </trkpt>
      <trkpt lat="48.64515" lon="-2.44495">
        <ele>105</ele>
        <time>2016-02-21T15:19:55.1Z</time>
      </trkpt>
      <trkpt lat="48.64518" lon="-2.44494">
        <ele>105</ele>
        <time>2016-02-21T15:19:57.1Z</time>
      </trkpt>
      <trkpt lat="48.6452" lon="-2.44493">
        <ele>105</ele>
        <time>2016-02-21T15:19:59.1Z</time>
      </trkpt>
      <trkpt lat="48.64523" lon="-2.44492">
        <ele>104</ele>
        <time>2016-02-21T15:20:01.1Z</time>
      </trkpt>
      <trkpt lat="48.64527" lon="-2.44492">
        <ele>104</ele>
        <time>2016-02-21T15:20:04.1Z</time>
      </trkpt>
      <trkpt lat="48.64531" lon="-2.44491">
        <ele>104</ele>
        <time>2016-02-21T15:20:07.1Z</time>
      </trkpt>
      <trkpt lat="48.64534" lon="-2.4449">
        <ele>104</ele>
        <time>2016-02-21T15:20:09.1Z</time>
      </trkpt>
      <trkpt lat="48.64537" lon="-2.44489">
        <ele>104</ele>
        <time>2016-02-21T15:20:12.1Z</time>
      </trkpt>
      <trkpt lat="48.64541" lon="-2.44488">
        <ele>104</ele>
        <time>2016-02-21T15:20:15.1Z</time>
      </trkpt>
      <trkpt lat="48.64543" lon="-2.44487">
        <ele>104</ele>
        <time>2016-02-21T15:20:17.1Z</time>
      </trkpt>
      <trkpt lat="48.64545" lon="-2.44487">
        <ele>104</ele>
        <time>2016-02-21T15:20:19.1Z</time>
      </trkpt>
      <trkpt lat="48.64547" lon="-2.44486">
        <ele>104</ele>
        <time>2016-02-21T15:20:21.1Z</time>
      </trkpt>
      <trkpt lat="48.64551" lon="-2.44485">
        <ele>103</ele>
        <time>2016-02-21T15:20:24.1Z</time>
      </trkpt>
      <trkpt lat="48.64552" lon="-2.44485">
        <ele>103</ele>
        <time>2016-02-21T15:20:26.1Z</time>
      </trkpt>
      <trkpt lat="48.64555" lon="-2.44484">
        <ele>103</ele>
        <time>2016-02-21T15:20:29.1Z</time>
      </trkpt>
      <trkpt lat="48.64557" lon="-2.44484">
        <ele>103</ele>
        <time>2016-02-21T15:20:31.1Z</time>
      </trkpt>
      <trkpt lat="48.64558" lon="-2.44485">
        <ele>103</ele>
        <time>2016-02-21T15:20:33.1Z</time>
      </trkpt>
      <trkpt lat="48.64561" lon="-2.44484">
        <ele>103</ele>
        <time>2016-02-21T15:20:36.1Z</time>
      </trkpt>
      <trkpt lat="48.64565" lon="-2.44484">
        <ele>102</ele>
        <time>2016-02-21T15:20:39.1Z</time>
      </trkpt>
      <trkpt lat="48.64568" lon="-2.44483">
        <ele>102</ele>
        <time>2016-02-21T15:20:42.1Z</time>
      </trkpt>
      <trkpt lat="48.64571" lon="-2.44483">
        <ele>102</ele>
        <time>2016-02-21T15:20:45.1Z</time>
      </trkpt>
      <trkpt lat="48.64572" lon="-2.44483">
        <ele>102</ele>
        <time>2016-02-21T15:20:47.1Z</time>
      </trkpt>
      <trkpt lat="48.64574" lon="-2.44485">
        <ele>102</ele>
        <time>2016-02-21T15:20:50.1Z</time>
      </trkpt>
      <trkpt lat="48.64575" lon="-2.44487">
        <ele>102</ele>
        <time>2016-02-21T15:20:52.1Z</time>
      </trkpt>
      <trkpt lat="48.64576" lon="-2.44491">
        <ele>102</ele>
        <time>2016-02-21T15:20:55.1Z</time>
      </trkpt>
      <trkpt lat="48.64576" lon="-2.44494">
        <ele>102</ele>
        <time>2016-02-21T15:20:57.1Z</time>
      </trkpt>
      <trkpt lat="48.64576" lon="-2.44497">
        <ele>102</ele>
        <time>2016-02-21T15:21:00.1Z</time>
      </trkpt>
      <trkpt lat="48.64577" lon="-2.44499">
        <ele>102</ele>
        <time>2016-02-21T15:21:02.1Z</time>
      </trkpt>
      <trkpt lat="48.64578" lon="-2.44504">
        <ele>103</ele>
        <time>2016-02-21T15:21:05.1Z</time>
      </trkpt>
      <trkpt lat="48.6458" lon="-2.44509">
        <ele>103</ele>
        <time>2016-02-21T15:21:08.1Z</time>
      </trkpt>
      <trkpt lat="48.64582" lon="-2.44512">
        <ele>103</ele>
        <time>2016-02-21T15:21:11.1Z</time>
      </trkpt>
      <trkpt lat="48.64583" lon="-2.44513">
        <ele>103</ele>
        <time>2016-02-21T15:21:13.1Z</time>
      </trkpt>
      <trkpt lat="48.64585" lon="-2.44516">
        <ele>102</ele>
        <time>2016-02-21T15:21:16.1Z</time>
      </trkpt>
      <trkpt lat="48.64587" lon="-2.44519">
        <ele>102</ele>
        <time>2016-02-21T15:21:19.1Z</time>
      </trkpt>
      <trkpt lat="48.64589" lon="-2.44521">
        <ele>102</ele>
        <time>2016-02-21T15:21:21.1Z</time>
      </trkpt>
      <trkpt lat="48.6459" lon="-2.44526">
        <ele>102</ele>
        <time>2016-02-21T15:21:24.1Z</time>
      </trkpt>
      <trkpt lat="48.64592" lon="-2.44529">
        <ele>102</ele>
        <time>2016-02-21T15:21:27.1Z</time>
      </trkpt>
      <trkpt lat="48.64592" lon="-2.44532">
        <ele>102</ele>
        <time>2016-02-21T15:21:29.1Z</time>
      </trkpt>
      <trkpt lat="48.64594" lon="-2.44535">
        <ele>102</ele>
        <time>2016-02-21T15:21:31.1Z</time>
      </trkpt>
      <trkpt lat="48.64595" lon="-2.44539">
        <ele>101</ele>
        <time>2016-02-21T15:21:34.1Z</time>
      </trkpt>
      <trkpt lat="48.64596" lon="-2.44542">
        <ele>101</ele>
        <time>2016-02-21T15:21:36.1Z</time>
      </trkpt>
      <trkpt lat="48.64597" lon="-2.44546">
        <ele>101</ele>
        <time>2016-02-21T15:21:39.1Z</time>
      </trkpt>
      <trkpt lat="48.64598" lon="-2.4455">
        <ele>101</ele>
        <time>2016-02-21T15:21:41.1Z</time>
      </trkpt>
      <trkpt lat="48.64599" lon="-2.44554">
        <ele>101</ele>
        <time>2016-02-21T15:21:44.1Z</time>
      </trkpt>
      <trkpt lat="48.646" lon="-2.44556">
        <ele>101</ele>
        <time>2016-02-21T15:21:46.1Z</time>
      </trkpt>
      <trkpt lat="48.64602" lon="-2.44561">
        <ele>101</ele>
        <time>2016-02-21T15:21:49.1Z</time>
      </trkpt>
      <trkpt lat="48.64603" lon="-2.44564">
        <ele>100</ele>
        <time>2016-02-21T15:21:52.1Z</time>
      </trkpt>
      <trkpt lat="48.64605" lon="-2.44568">
        <ele>100</ele>
        <time>2016-02-21T15:21:55.1Z</time>
      </trkpt>
      <trkpt lat="48.64606" lon="-2.44572">
        <ele>100</ele>
        <time>2016-02-21T15:21:58.1Z</time>
      </trkpt>
      <trkpt lat="48.64608" lon="-2.44574">
        <ele>100</ele>
        <time>2016-02-21T15:22:00.1Z</time>
      </trkpt>
      <trkpt lat="48.64609" lon="-2.44577">
        <ele>100</ele>
        <time>2016-02-21T15:22:02.1Z</time>
      </trkpt>
      <trkpt lat="48.64611" lon="-2.44581">
        <ele>100</ele>
        <time>2016-02-21T15:22:05.1Z</time>
      </trkpt>
      <trkpt lat="48.64613" lon="-2.44583">
        <ele>100</ele>
        <time>2016-02-21T15:22:07.1Z</time>
      </trkpt>
      <trkpt lat="48.64614" lon="-2.44585">
        <ele>100</ele>
        <time>2016-02-21T15:22:09.1Z</time>
      </trkpt>
      <trkpt lat="48.64616" lon="-2.44588">
        <ele>100</ele>
        <time>2016-02-21T15:22:12.1Z</time>
      </trkpt>
      <trkpt lat="48.64617" lon="-2.4459">
        <ele>99</ele>
        <time>2016-02-21T15:22:15.1Z</time>
      </trkpt>
      <trkpt lat="48.64618" lon="-2.44592">
        <ele>99</ele>
        <time>2016-02-21T15:22:18.1Z</time>
      </trkpt>
      <trkpt lat="48.64619" lon="-2.44594">
        <ele>99</ele>
        <time>2016-02-21T15:22:21.1Z</time>
      </trkpt>
      <trkpt lat="48.64619" lon="-2.44595">
        <ele>100</ele>
        <time>2016-02-21T15:22:23.1Z</time>
      </trkpt>
      <trkpt lat="48.64621" lon="-2.44595">
        <ele>100</ele>
        <time>2016-02-21T15:22:26.1Z</time>
      </trkpt>
      <trkpt lat="48.64622" lon="-2.44596">
        <ele>100</ele>
        <time>2016-02-21T15:22:29.1Z</time>
      </trkpt>
      <trkpt lat="48.64623" lon="-2.44596">
        <ele>100</ele>
        <time>2016-02-21T15:22:31.1Z</time>
      </trkpt>
      <trkpt lat="48.64625" lon="-2.44597">
        <ele>99</ele>
        <time>2016-02-21T15:22:34.1Z</time>
      </trkpt>
      <trkpt lat="48.64627" lon="-2.446">
        <ele>99</ele>
        <time>2016-02-21T15:22:37.1Z</time>
      </trkpt>
      <trkpt lat="48.64629" lon="-2.44604">
        <ele>99</ele>
        <time>2016-02-21T15:22:40.1Z</time>
      </trkpt>
      <trkpt lat="48.64631" lon="-2.44606">
        <ele>99</ele>
        <time>2016-02-21T15:22:42.1Z</time>
      </trkpt>
      <trkpt lat="48.64634" lon="-2.44609">
        <ele>99</ele>
        <time>2016-02-21T15:22:45.1Z</time>
      </trkpt>
      <trkpt lat="48.64636" lon="-2.44614">
        <ele>99</ele>
        <time>2016-02-21T15:22:48.1Z</time>
      </trkpt>
      <trkpt lat="48.64638" lon="-2.44618">
        <ele>99</ele>
        <time>2016-02-21T15:22:51.1Z</time>
      </trkpt>
      <trkpt lat="48.64639" lon="-2.44623">
        <ele>99</ele>
        <time>2016-02-21T15:22:54.1Z</time>
      </trkpt>
      <trkpt lat="48.64642" lon="-2.44627">
        <ele>98</ele>
        <time>2016-02-21T15:22:57.1Z</time>
      </trkpt>
      <trkpt lat="48.64644" lon="-2.4463">
        <ele>97</ele>
        <time>2016-02-21T15:22:59.1Z</time>
      </trkpt>
      <trkpt lat="48.64645" lon="-2.44632">
        <ele>97</ele>
        <time>2016-02-21T15:23:02.1Z</time>
      </trkpt>
      <trkpt lat="48.64646" lon="-2.44634">
        <ele>97</ele>
        <time>2016-02-21T15:23:04.1Z</time>
      </trkpt>
      <trkpt lat="48.64648" lon="-2.44637">
        <ele>97</ele>
        <time>2016-02-21T15:23:06.1Z</time>
      </trkpt>
      <trkpt lat="48.64649" lon="-2.4464">
        <ele>97</ele>
        <time>2016-02-21T15:23:08.1Z</time>
      </trkpt>
      <trkpt lat="48.6465" lon="-2.44645">
        <ele>97</ele>
        <time>2016-02-21T15:23:11.1Z</time>
      </trkpt>
      <trkpt lat="48.64652" lon="-2.44649">
        <ele>97</ele>
        <time>2016-02-21T15:23:14.1Z</time>
      </trkpt>
      <trkpt lat="48.64653" lon="-2.44652">
        <ele>97</ele>
        <time>2016-02-21T15:23:16.1Z</time>
      </trkpt>
      <trkpt lat="48.64656" lon="-2.44655">
        <ele>97</ele>
        <time>2016-02-21T15:23:19.1Z</time>
      </trkpt>
      <trkpt lat="48.64657" lon="-2.44658">
        <ele>96</ele>
        <time>2016-02-21T15:23:21.1Z</time>
      </trkpt>
      <trkpt lat="48.64658" lon="-2.44662">
        <ele>96</ele>
        <time>2016-02-21T15:23:24.1Z</time>
      </trkpt>
      <trkpt lat="48.64661" lon="-2.44666">
        <ele>96</ele>
        <time>2016-02-21T15:23:27.1Z</time>
      </trkpt>
      <trkpt lat="48.64662" lon="-2.44669">
        <ele>96</ele>
        <time>2016-02-21T15:23:29.1Z</time>
      </trkpt>
      <trkpt lat="48.64664" lon="-2.44673">
        <ele>95</ele>
        <time>2016-02-21T15:23:32.1Z</time>
      </trkpt>
      <trkpt lat="48.64666" lon="-2.44678">
        <ele>95</ele>
        <time>2016-02-21T15:23:35.1Z</time>
      </trkpt>
      <trkpt lat="48.64668" lon="-2.44684">
        <ele>95</ele>
        <time>2016-02-21T15:23:38.1Z</time>
      </trkpt>
      <trkpt lat="48.64669" lon="-2.44688">
        <ele>95</ele>
        <time>2016-02-21T15:23:41.1Z</time>
      </trkpt>
      <trkpt lat="48.64671" lon="-2.44694">
        <ele>95</ele>
        <time>2016-02-21T15:23:44.1Z</time>
      </trkpt>
      <trkpt lat="48.64674" lon="-2.44698">
        <ele>95</ele>
        <time>2016-02-21T15:23:47.1Z</time>
      </trkpt>
      <trkpt lat="48.64675" lon="-2.44702">
        <ele>94</ele>
        <time>2016-02-21T15:23:49.1Z</time>
      </trkpt>
      <trkpt lat="48.64678" lon="-2.44706">
        <ele>94</ele>
        <time>2016-02-21T15:23:52.1Z</time>
      </trkpt>
      <trkpt lat="48.64679" lon="-2.44709">
        <ele>94</ele>
        <time>2016-02-21T15:23:54.1Z</time>
      </trkpt>
      <trkpt lat="48.64681" lon="-2.44714">
        <ele>94</ele>
        <time>2016-02-21T15:23:57.1Z</time>
      </trkpt>
      <trkpt lat="48.64682" lon="-2.44717">
        <ele>94</ele>
        <time>2016-02-21T15:23:59.1Z</time>
      </trkpt>
      <trkpt lat="48.64684" lon="-2.4472">
        <ele>94</ele>
        <time>2016-02-21T15:24:01.1Z</time>
      </trkpt>
      <trkpt lat="48.64685" lon="-2.44723">
        <ele>93</ele>
        <time>2016-02-21T15:24:03.1Z</time>
      </trkpt>
      <trkpt lat="48.64688" lon="-2.44727">
        <ele>93</ele>
        <time>2016-02-21T15:24:06.1Z</time>
      </trkpt>
    </trkseg>
  </trk>
</gpx>